Time;durP1;ratioP1;P1;durP2;ratioP2;P2;SDS_P1;SDS_P2;PMS_P1;PMS_P2;Temp;Humidity;BMP_temperature;BMP_pressure;BME280_temperature;BME280_humidity;BME280_pressure;Samples;Min_cycle;Max_cycle;Signal;HPM_P1;HPM_P2
2023/07/19 07:01:25;;;;;;;0.82;0.82;;;19.80;99.90;21.40;101252.00;;;;6254632;22;1368633;-71
2023/07/19 07:03:51;;;;;;;0.15;0.15;;;19.80;99.90;23.00;101271.00;;;;6309865;22;20217;-71
2023/07/19 07:06:19;;;;;;;0.10;0.10;;;20.40;99.90;23.50;101267.00;;;;6282506;22;20141;-72
2023/07/19 07:08:45;;;;;;;0.85;0.65;;;21.20;99.90;24.60;101275.00;;;;6281616;22;20144;-72
2023/07/19 07:11:27;;;;;;;0.13;0.13;;;22.00;99.90;25.20;101298.00;;;;6282163;22;20194;-72
2023/07/19 07:13:53;;;;;;;1.63;1.52;;;22.90;99.90;25.20;101315.00;;;;6282007;22;20158;-72
2023/07/19 07:16:38;;;;;;;1.30;1.02;;;23.10;99.90;25.50;101303.00;;;;6281863;22;20620;-71
2023/07/19 07:19:05;;;;;;;0.10;0.10;;;23.10;99.90;25.70;101298.00;;;;6309506;22;20148;-72
2023/07/19 07:21:31;;;;;;;0.10;0.10;;;23.10;99.90;27.90;101330.00;;;;6281807;22;20137;-72
2023/07/19 07:23:57;;;;;;;1.17;1.08;;;24.40;99.90;27.70;101339.00;;;;6282318;22;20194;-71
2023/07/19 07:26:23;;;;;;;3.72;1.52;;;24.90;99.90;26.30;101345.00;;;;6282212;22;20205;-71
2023/07/19 07:28:49;;;;;;;1.75;0.40;;;24.30;99.90;30.50;101314.00;;;;6281817;22;20137;-69
2023/07/19 07:31:18;;;;;;;0.10;0.10;;;26.30;99.90;29.60;101311.00;;;;6282009;22;20159;-69
2023/07/19 07:33:44;;;;;;;0.13;0.13;;;26.80;99.90;29.10;101318.00;;;;6282037;22;20168;-69
2023/07/19 07:36:12;;;;;;;0.13;0.13;;;26.60;99.90;27.80;101359.00;;;;6255884;22;20157;-71
2023/07/19 07:38:38;;;;;;;0.10;0.10;;;26.20;99.90;24.40;101380.00;;;;6256365;22;20486;-71
2023/07/19 07:41:11;;;;;;;2.70;1.40;;;23.90;99.90;26.40;101360.00;;;;6309371;22;20148;-70
2023/07/19 07:43:37;;;;;;;0.43;0.43;;;23.90;99.90;25.40;101380.00;;;;6257956;22;20416;-70
2023/07/19 07:46:29;;;;;;;0.10;0.10;;;23.90;99.90;29.40;101347.00;;;;6256546;22;20163;-69
2023/07/19 07:48:59;;;;;;;0.20;0.20;;;25.60;99.90;29.70;101332.00;;;;6249161;22;20160;-69
2023/07/19 07:51:34;;;;;;;0.32;0.32;;;26.80;99.90;30.80;101287.00;;;;6256513;22;20206;-71
2023/07/19 07:53:59;;;;;;;2.25;1.20;;;27.90;99.90;31.00;101299.00;;;;6281789;22;20139;-69
2023/07/19 07:56:33;;;;;;;0.32;0.32;;;27.80;99.90;26.80;101359.00;;;;6281354;22;20194;-70
2023/07/19 07:59:02;;;;;;;0.73;0.73;;;25.90;99.90;25.90;101389.00;;;;6281646;22;20219;-70
2023/07/19 08:01:31;;;;;;;2.60;1.10;;;24.80;99.90;25.40;101379.00;;;;6252600;22;20541;-70
2023/07/19 08:03:56;;;;;;;0.28;0.28;;;23.80;99.90;27.10;101319.00;;;;6250895;22;20152;-70
2023/07/19 08:06:22;;;;;;;0.30;0.30;;;24.20;99.90;27.50;101356.00;;;;6250732;22;20141;-70
2023/07/19 08:08:48;;;;;;;0.40;0.40;;;24.70;99.90;26.40;101365.00;;;;6251152;22;20148;-72
2023/07/19 08:11:14;;;;;;;4.00;1.67;;;24.60;99.90;26.40;101369.00;;;;6249168;22;20149;-72
2023/07/19 08:14:06;;;;;;;0.57;0.57;;;24.50;99.90;26.80;101359.00;;;;6250734;22;20585;-72
2023/07/19 08:16:52;;;;;;;1.75;1.02;;;24.60;99.90;25.80;101379.00;;;;6225586;22;20211;-72
2023/07/19 08:19:49;;;;;;;0.68;0.55;;;24.00;99.90;28.30;101333.00;;;;6225620;22;20157;-73
2023/07/19 08:23:10;;;;;;;0.10;0.10;;;25.20;99.90;31.00;101316.00;;;;6251108;22;20149;-71
2023/07/19 08:26:05;;;;;;;0.10;0.10;;;27.10;99.90;30.00;101314.00;;;;6273345;22;20157;-70
2023/07/19 08:28:52;;;;;;;0.10;0.10;;;26.70;99.90;31.30;101291.00;;;;6250519;22;20164;-73
2023/07/19 08:32:03;;;;;;;0.98;0.80;;;28.30;99.90;27.90;101357.00;;;;6250410;22;20161;-73
2023/07/19 08:34:53;;;;;;;0.70;0.68;;;26.30;99.90;31.20;101298.00;;;;6251510;22;20181;-72
2023/07/19 08:37:31;;;;;;;0.82;0.65;;;27.60;99.90;27.00;101369.00;;;;6195329;22;20578;-73
2023/07/19 08:40:14;;;;;;;0.57;0.57;;;26.30;99.90;24.70;101385.00;;;;6250490;22;20161;-73
2023/07/19 08:46:50;;;;;;;0.68;0.63;;;23.60;99.90;24.50;101364.00;;;;6265988;22;20153;-72
2023/07/19 08:49:38;;;;;;;0.85;0.80;;;23.20;99.90;26.00;101333.00;;;;6225387;22;20163;-73
2023/07/19 08:52:40;;;;;;;2.03;0.82;;;23.60;99.90;26.60;101377.00;;;;6250533;22;20174;-73
2023/07/19 08:55:11;;;;;;;1.40;0.43;;;24.50;99.90;23.80;101332.00;;;;6225405;22;20171;-73
2023/07/19 08:57:49;;;;;;;0.28;0.28;;;22.70;99.90;24.10;101364.00;;;;6225185;22;20223;-72
2023/07/19 09:00:27;;;;;;;4.65;1.42;;;22.40;99.90;24.70;101340.00;;;;6263811;22;20247;-70
2023/07/19 09:02:55;;;;;;;1.17;0.35;;;22.60;99.90;25.60;101327.00;;;;6308242;22;20141;-71
2023/07/19 09:05:30;;;;;;;0.38;0.38;;;23.10;99.90;28.30;101293.00;;;;6281472;22;20145;-74
2023/07/19 09:08:00;;;;;;;0.30;0.30;;;24.80;99.90;28.90;101331.00;;;;6307957;22;20279;-71
2023/07/19 09:10:29;;;;;;;0.20;0.20;;;25.80;99.90;28.90;101327.00;;;;6280970;22;20167;-69
2023/07/19 09:12:55;;;;;;;0.38;0.38;;;26.40;99.90;28.20;101352.00;;;;6255424;22;20172;-72
2023/07/19 09:15:21;;;;;;;3.63;2.17;;;26.00;99.90;30.30;101322.00;;;;6281186;22;20141;-72
2023/07/19 09:17:49;;;;;;;1.15;1.00;;;26.70;99.90;28.40;101347.00;;;;6280153;22;20156;-71
2023/07/19 09:20:17;;;;;;;0.65;0.65;;;26.30;99.90;25.10;101364.00;;;;6308035;22;20468;-73
2023/07/19 09:22:45;;;;;;;1.00;1.00;;;24.00;99.90;25.60;101362.00;;;;6280893;22;20180;-71
2023/07/19 09:25:12;;;;;;;0.30;0.30;;;23.50;99.90;26.80;101334.00;;;;6281178;22;20141;-71
2023/07/19 09:27:44;;;;;;;4.13;1.02;;;24.00;99.90;26.10;101383.00;;;;6280044;22;20140;-72
2023/07/19 09:30:16;;;;;;;0.38;0.30;;;23.70;99.90;26.10;101373.00;;;;6307751;22;20133;-72
2023/07/19 09:32:42;;;;;;;1.48;1.38;;;23.60;99.90;26.40;101366.00;;;;6255368;22;20613;-72
2023/07/19 09:35:28;;;;;;;0.10;0.10;;;23.80;99.90;26.80;101332.00;;;;6280056;22;20190;-72
2023/07/19 09:38:00;;;;;;;0.10;0.10;;;23.90;99.90;25.00;101371.00;;;;6253610;22;20209;-71
2023/07/19 09:40:36;;;;;;;0.75;0.60;;;23.50;99.90;25.50;101341.00;;;;6280624;22;20194;-71
2023/07/19 09:43:10;;;;;;;0.80;0.55;;;23.10;99.90;24.50;101335.00;;;;6280233;22;20148;-71
2023/07/19 09:45:46;;;;;;;0.95;0.65;;;22.80;99.90;24.90;101304.00;;;;6280692;22;20243;-71
2023/07/19 09:48:15;;;;;;;0.47;0.47;;;22.50;99.90;26.40;101322.00;;;;6308089;22;20466;-71
2023/07/19 09:50:42;;;;;;;0.25;0.25;;;23.50;99.90;26.20;101347.00;;;;6307504;22;20635;-71
2023/07/19 09:53:13;;;;;;;0.30;0.30;;;24.00;99.90;24.70;101343.00;;;;6254838;22;20490;-71
2023/07/19 09:55:39;;;;;;;1.35;0.30;;;23.30;99.90;24.70;101331.00;;;;6280787;22;20148;-71
2023/07/19 09:58:12;;;;;;;0.68;0.55;;;23.00;99.90;23.70;101304.00;;;;6254928;22;20183;-70
2023/07/19 10:00:42;;;;;;;0.40;0.40;;;22.40;99.90;23.50;101276.00;;;;6235675;22;20179;-70
2023/07/19 10:03:18;;;;;;;2.45;0.47;;;21.90;99.90;22.90;101229.00;;;;6249581;22;20153;-70
2023/07/19 10:05:44;;;;;;;1.17;0.38;;;21.80;99.90;22.70;101255.00;;;;6249564;22;20526;-70
2023/07/19 10:08:43;;;;;;;0.65;0.65;;;21.50;99.90;22.90;101271.00;;;;6224354;22;20149;-70
2023/07/19 10:11:26;;;;;;;0.85;0.65;;;21.40;99.90;24.20;101284.00;;;;6243992;22;20169;-70
2023/07/19 10:13:56;;;;;;;0.40;0.40;;;21.80;99.90;23.40;101280.00;;;;6249709;22;20231;-70
2023/07/19 10:16:48;;;;;;;0.55;0.55;;;21.70;99.90;22.20;101251.00;;;;6274689;22;20163;-70
2023/07/19 10:19:58;;;;;;;0.63;0.50;;;21.30;99.90;22.90;101260.00;;;;6224512;22;20163;-70
2023/07/19 10:33:53;;;;;;;2.28;2.17;;;21.20;99.90;23.80;101276.00;;;;5110660;27;20532;-68
2023/07/19 10:36:31;;;;;;;2.75;1.10;;;21.80;99.90;24.10;101269.00;;;;5106021;28;20179;-68
2023/07/19 10:39:00;;;;;;;1.73;0.98;;;21.90;99.90;24.70;101263.00;;;;5088192;28;20216;-69
2023/07/19 10:41:52;;;;;;;1.80;1.70;;;22.50;99.90;24.40;101265.00;;;;5106165;28;20187;-68
2023/07/19 10:44:36;;;;;;;2.60;2.15;;;22.40;99.90;24.00;101260.00;;;;5086988;28;20185;-68
2023/07/19 10:47:02;;;;;;;1.40;1.17;;;22.40;99.90;24.20;101258.00;;;;5090039;28;20180;-68
2023/07/19 10:49:52;;;;;;;1.63;1.05;;;22.50;99.90;25.80;101264.00;;;;5105427;28;20227;-69
2023/07/19 10:52:21;;;;;;;3.58;1.75;;;23.50;99.90;24.40;101218.00;;;;5087063;28;20216;-68
2023/07/19 10:54:56;;;;;;;0.20;0.20;;;23.10;99.90;25.90;101267.00;;;;5105488;28;20189;-68
2023/07/19 10:57:23;;;;;;;1.48;1.27;;;23.40;99.90;24.40;101260.00;;;;5086307;28;20184;-68
2023/07/19 11:00:12;;;;;;;8.45;3.30;;;23.00;99.90;24.40;101270.00;;;;5105787;28;20194;-68
2023/07/19 11:02:40;;;;;;;0.28;0.28;;;22.90;99.90;25.90;101275.00;;;;5086524;28;20196;-68
2023/07/19 11:05:09;;;;;;;0.77;0.77;;;23.20;99.90;25.00;101310.00;;;;5090062;28;20576;-68
2023/07/19 11:08:22;;;;;;;3.42;1.20;;;23.30;99.90;24.90;101305.00;;;;5088926;28;20279;-68
2023/07/19 11:10:50;;;;;;;0.10;0.10;;;23.30;99.90;27.20;101299.00;;;;5078771;28;20195;-68
2023/07/19 11:13:44;;;;;;;0.75;0.40;;;23.80;99.90;27.20;101320.00;;;;5105201;28;20208;-68
2023/07/19 11:16:16;;;;;;;1.75;1.20;;;24.20;99.90;28.30;101335.00;;;;5080601;28;20197;-69
2023/07/19 11:18:42;;;;;;;0.10;0.10;;;25.00;99.90;28.90;101339.00;;;;5104405;28;20181;-69
2023/07/19 11:21:14;;;;;;;0.10;0.10;;;25.50;99.90;27.90;101359.00;;;;5089731;28;20181;-71
2023/07/19 11:23:46;;;;;;;0.40;0.22;;;25.30;99.90;28.20;101349.00;;;;5104564;28;20239;-69
2023/07/19 11:26:35;;;;;;;0.10;0.10;;;25.10;99.90;27.30;101373.00;;;;5105677;28;20202;-68
2023/07/19 11:29:20;;;;;;;0.10;0.10;;;24.70;99.90;27.00;101374.00;;;;5100312;28;20721;-68
2023/07/19 11:31:57;;;;;;;0.10;0.10;;;24.20;99.90;27.30;101364.00;;;;5079779;28;20220;-68
2023/07/19 11:34:28;;;;;;;0.10;0.10;;;24.10;99.90;27.30;101357.00;;;;5101439;28;20250;-68
2023/07/19 11:37:24;;;;;;;0.10;0.10;;;24.20;99.90;27.10;101376.00;;;;5105101;28;20184;-68
2023/07/19 11:40:23;;;;;;;0.20;0.20;;;24.00;99.90;27.20;101375.00;;;;5105014;28;20310;-66
2023/07/19 11:42:53;;;;;;;0.17;0.17;;;24.10;99.90;27.60;101367.00;;;;5092124;28;20194;-68
2023/07/19 11:45:25;;;;;;;0.10;0.10;;;24.20;99.90;27.80;101375.00;;;;5088370;28;20523;-68
2023/07/19 11:48:02;;;;;;;0.10;0.10;;;24.40;99.90;27.90;101377.00;;;;5071760;28;20269;-69
2023/07/19 11:50:30;;;;;;;0.10;0.10;;;24.60;99.90;27.90;101373.00;;;;5075592;28;20650;-69
2023/07/19 11:53:00;;;;;;;0.40;0.40;;;24.60;99.90;27.20;101349.00;;;;5086507;28;20659;-68
2023/07/19 11:56:09;;;;;;;0.30;0.30;;;24.40;99.90;27.90;101383.00;;;;5064066;28;20185;-68
2023/07/19 11:58:55;;;;;;;0.10;0.10;;;24.50;99.90;28.00;101373.00;;;;5062850;28;20674;-69
2023/07/19 12:01:43;;;;;;;0.30;0.30;;;24.70;99.90;28.30;101369.00;;;;5071056;28;20197;-69
2023/07/19 12:04:15;;;;;;;0.10;0.10;;;25.20;99.90;28.40;101362.00;;;;5086312;28;20177;-69
2023/07/19 12:07:10;;;;;;;0.10;0.10;;;25.40;99.90;28.50;101370.00;;;;5091011;28;20178;-69
2023/07/19 12:09:42;;;;;;;1.13;0.65;;;25.30;99.90;29.40;101356.00;;;;5072772;28;20182;-68
2023/07/19 12:12:09;;;;;;;0.73;0.73;;;25.90;99.90;28.80;101349.00;;;;5075453;28;20212;-69
2023/07/19 12:14:41;;;;;;;0.10;0.10;;;25.90;99.90;29.10;101357.00;;;;5074508;28;20709;-69
2023/07/19 12:17:55;;;;;;;1.85;0.68;;;26.00;99.90;26.60;101398.00;;;;5090614;28;20186;-68
2023/07/19 12:20:21;;;;;;;0.20;0.20;;;25.00;99.90;27.10;101348.00;;;;5074278;28;20228;-68
2023/07/19 12:22:50;;;;;;;0.20;0.20;;;24.30;99.90;27.80;101360.00;;;;5090725;28;20242;-68
2023/07/19 12:25:18;;;;;;;0.30;0.30;;;24.60;99.90;27.00;101397.00;;;;5090784;28;20231;-69
2023/07/19 12:27:46;;;;;;;3.58;1.35;;;24.40;99.90;27.60;101398.00;;;;5075386;28;20189;-69
2023/07/19 12:30:12;;;;;;;0.13;0.13;;;24.50;99.90;27.50;101394.00;;;;5088761;28;20268;-69
2023/07/19 12:32:44;;;;;;;0.10;0.10;;;24.60;99.90;27.80;101398.00;;;;5072048;28;20244;-68
2023/07/19 12:35:15;;;;;;;0.20;0.20;;;24.80;99.90;28.20;101397.00;;;;5089856;28;20178;-69
2023/07/19 12:37:41;;;;;;;0.55;0.38;;;24.90;99.90;28.70;101380.00;;;;5090199;28;20236;-68
2023/07/19 12:40:28;;;;;;;0.10;0.10;;;25.20;99.90;28.80;101391.00;;;;5074954;28;20189;-69
2023/07/19 12:42:57;;;;;;;0.15;0.15;;;25.40;99.90;28.30;101380.00;;;;5090481;28;20181;-69
2023/07/19 12:45:40;;;;;;;0.52;0.52;;;25.40;99.90;25.50;101418.00;;;;5087075;28;20223;-69
2023/07/19 12:48:06;;;;;;;0.47;0.47;;;23.80;99.90;27.00;101380.00;;;;5077259;28;20230;-68
2023/07/19 12:50:49;;;;;;;2.65;0.85;;;24.10;99.90;25.70;101425.00;;;;5074690;28;20627;-68
2023/07/19 12:53:18;;;;;;;0.25;0.25;;;24.00;99.90;26.90;101406.00;;;;5069667;28;20663;-68
2023/07/19 12:55:46;;;;;;;3.35;1.10;;;24.00;99.90;27.90;101385.00;;;;5070988;28;20192;-68
2023/07/19 12:58:13;;;;;;;0.52;0.52;;;24.60;99.90;26.80;101408.00;;;;5074525;28;20693;-69
2023/07/19 13:00:43;;;;;;;0.30;0.30;;;24.30;99.90;26.80;101361.00;;;;5089929;28;20178;-68
2023/07/19 13:03:09;;;;;;;0.13;0.13;;;24.10;99.90;27.70;101391.00;;;;5074604;28;20185;-68
2023/07/19 13:05:35;;;;;;;1.38;1.27;;;24.60;99.90;26.80;101397.00;;;;5090172;28;20182;-68
2023/07/19 13:08:12;;;;;;;0.75;0.38;;;24.30;99.90;25.40;101405.00;;;;5073782;28;20185;-68
2023/07/19 13:10:39;;;;;;;0.50;0.50;;;23.60;99.90;24.30;101424.00;;;;5074192;28;20181;-68
2023/07/19 13:13:28;;;;;;;1.95;1.48;;;22.90;99.90;24.80;101407.00;;;;5088296;28;20213;-68
2023/07/19 13:15:56;;;;;;;0.85;0.73;;;22.80;99.90;25.90;101403.00;;;;5064783;28;20662;-68
2023/07/19 13:18:22;;;;;;;0.50;0.50;;;23.10;99.90;24.90;101416.00;;;;5089523;28;20185;-68
2023/07/19 13:21:12;;;;;;;1.00;0.93;;;23.00;99.90;26.10;101393.00;;;;5088486;28;20192;-68
2023/07/19 13:24:02;;;;;;;1.02;0.90;;;23.20;99.90;24.90;101422.00;;;;5087623;28;20189;-68
2023/07/19 13:26:33;;;;;;;3.13;0.82;;;22.90;99.90;24.70;101382.00;;;;5072157;28;20189;-68
2023/07/19 13:28:59;;;;;;;0.10;0.10;;;22.50;99.90;25.80;101421.00;;;;5067223;28;20587;-68
2023/07/19 13:31:27;;;;;;;0.40;0.40;;;22.90;99.90;26.70;101404.00;;;;5076385;28;20344;-68
2023/07/19 13:33:57;;;;;;;0.10;0.10;;;23.30;99.90;27.40;101387.00;;;;5073905;28;20181;-68
2023/07/19 13:36:32;;;;;;;0.20;0.20;;;23.70;99.90;27.20;101394.00;;;;5088890;28;20659;-68
2023/07/19 13:38:58;;;;;;;0.45;0.45;;;24.10;99.90;27.50;101387.00;;;;5088234;28;20189;-68
2023/07/19 13:41:24;;;;;;;0.10;0.10;;;24.30;99.90;27.70;101342.00;;;;5074108;28;20274;-68
2023/07/19 13:43:55;;;;;;;0.10;0.10;;;24.50;99.90;28.30;101374.00;;;;5070658;28;20193;-68
2023/07/19 13:46:22;;;;;;;0.28;0.28;;;24.80;99.90;28.60;101366.00;;;;5089406;28;20178;-69
2023/07/19 13:48:48;;;;;;;0.10;0.10;;;25.20;99.90;28.20;101383.00;;;;5088613;28;20195;-68
2023/07/19 13:51:21;;;;;;;1.90;1.30;;;25.00;99.90;25.40;101413.00;;;;5089219;28;20192;-68
2023/07/19 13:54:05;;;;;;;0.30;0.30;;;23.70;99.90;25.40;101415.00;;;;5088131;28;20189;-68
2023/07/19 13:56:31;;;;;;;0.55;0.55;;;23.00;99.90;25.80;101398.00;;;;5071683;28;20185;-68
2023/07/19 13:59:13;;;;;;;0.43;0.43;;;23.00;99.90;26.70;101409.00;;;;5086168;28;20191;-68
2023/07/19 14:01:42;;;;;;;0.70;0.70;;;23.40;99.90;26.80;101406.00;;;;5073101;28;20233;-68
2023/07/19 14:04:08;;;;;;;0.10;0.10;;;23.70;99.90;27.00;101418.00;;;;5088445;28;20665;-68
2023/07/19 14:06:33;;;;;;;1.27;0.47;;;23.80;99.90;27.00;101419.00;;;;5072814;28;20173;-68
2023/07/19 14:09:04;;;;;;;0.80;0.35;;;23.80;99.90;26.70;101415.00;;;;5088527;28;20174;-68
2023/07/19 14:11:51;;;;;;;0.10;0.10;;;23.70;99.90;26.80;101420.00;;;;5087293;28;20208;-68
2023/07/19 14:14:17;;;;;;;0.10;0.10;;;23.70;99.90;26.50;101411.00;;;;5088336;28;20227;-68
2023/07/19 14:16:49;;;;;;;0.80;0.80;;;23.60;99.90;26.30;101421.00;;;;5084894;28;20201;-68
2023/07/19 14:19:28;;;;;;;0.10;0.10;;;23.80;99.90;27.90;101400.00;;;;5101804;28;20254;-68
2023/07/19 14:21:54;;;;;;;0.63;0.63;;;24.30;99.90;27.40;101400.00;;;;5088794;28;20250;-68
2023/07/19 14:24:41;;;;;;;0.30;0.30;;;24.60;99.90;24.60;101370.00;;;;5068253;28;20194;-68
2023/07/19 14:27:07;;;;;;;0.10;0.10;;;23.00;99.90;25.90;101399.00;;;;5069201;28;20693;-68
2023/07/19 14:29:52;;;;;;;1.05;0.68;;;23.10;99.90;25.40;101400.00;;;;5089187;28;20197;-68
2023/07/19 14:32:26;;;;;;;0.38;0.38;;;23.30;99.90;25.90;101400.00;;;;5083446;28;20213;-66
2023/07/19 14:34:55;;;;;;;1.33;1.33;;;23.20;99.90;26.10;101364.00;;;;5087658;28;20643;-68
2023/07/19 14:37:32;;;;;;;0.57;0.57;;;23.50;99.90;24.40;101404.00;;;;5086147;28;20670;-67
2023/07/19 14:40:04;;;;;;;0.73;0.73;;;22.80;99.90;24.30;101387.00;;;;5072347;28;20193;-67
2023/07/19 14:42:40;;;;;;;3.10;1.77;;;22.40;99.90;25.60;101385.00;;;;5087992;28;20189;-67
2023/07/19 14:45:06;;;;;;;2.42;1.33;;;22.80;99.90;25.90;101398.00;;;;5066165;28;20274;-67
2023/07/19 14:47:35;;;;;;;1.25;1.15;;;23.20;99.90;25.80;101357.00;;;;5073105;28;20242;-68
2023/07/19 14:50:26;;;;;;;8.00;1.70;;;23.20;99.90;24.70;101383.00;;;;5072716;28;20185;-67
2023/07/19 14:52:56;;;;;;;1.48;1.05;;;22.40;99.90;23.70;101379.00;;;;5066893;28;20225;-67
2023/07/19 14:55:30;;;;;;;2.45;0.95;;;22.10;99.90;25.40;101361.00;;;;5096703;28;20251;-68
2023/07/19 14:58:10;;;;;;;0.10;0.10;;;22.30;99.90;25.80;101367.00;;;;5087463;28;20193;-68
2023/07/19 15:00:36;;;;;;;4.47;1.58;;;22.70;99.90;23.00;101278.00;;;;5074049;28;20238;-67
2023/07/19 15:03:11;;;;;;;1.38;0.85;;;21.60;99.90;23.80;101274.00;;;;5072398;28;20173;-67
2023/07/19 15:05:37;;;;;;;0.47;0.47;;;21.50;99.90;23.00;101285.00;;;;5072571;28;20188;-67
2023/07/19 15:08:12;;;;;;;0.10;0.10;;;21.20;99.90;23.70;101290.00;;;;5072977;28;20186;-67
2023/07/19 15:10:47;;;;;;;0.10;0.10;;;21.30;99.90;24.80;101295.00;;;;5083202;28;20196;-67
2023/07/19 15:13:54;;;;;;;0.10;0.10;;;21.80;99.90;25.70;101297.00;;;;5085528;28;20216;-67
2023/07/19 15:17:06;;;;;;;0.10;0.10;;;22.40;99.90;25.80;101299.00;;;;5067635;28;20189;-68
2023/07/19 15:19:32;;;;;;;0.45;0.45;;;22.80;99.90;24.00;101286.00;;;;5060683;28;20205;-67
2023/07/19 15:22:21;;;;;;;3.53;0.73;;;22.30;99.90;22.90;101285.00;;;;5075860;28;20181;-67
2023/07/19 15:24:50;;;;;;;0.10;0.10;;;21.40;99.90;22.70;101284.00;;;;5072030;28;20667;-67
2023/07/19 15:27:21;;;;;;;1.25;0.73;;;21.00;99.90;22.40;101279.00;;;;5091352;28;20209;-67
2023/07/19 15:29:50;;;;;;;1.85;0.85;;;20.70;99.90;21.90;101232.00;;;;5078525;28;20185;-67
2023/07/19 15:32:18;;;;;;;1.60;0.93;;;20.40;99.90;21.40;101227.00;;;;5074647;28;20312;-67
2023/07/19 15:34:44;;;;;;;0.13;0.13;;;20.00;99.90;21.90;101256.00;;;;5075840;28;20264;-67
2023/07/19 15:37:10;;;;;;;0.15;0.15;;;19.80;99.90;22.90;101256.00;;;;5091723;28;20649;-67
2023/07/19 15:39:36;;;;;;;7.78;0.85;;;20.10;99.90;22.90;101259.00;;;;5090936;28;20182;-67
2023/07/19 15:42:05;;;;;;;0.35;0.35;;;20.30;99.90;22.30;101255.00;;;;5091027;28;20280;-67
2023/07/19 15:44:40;;;;;;;1.10;1.10;;;20.10;99.90;21.60;101245.00;;;;5091613;28;20189;-67
2023/07/19 15:47:12;;;;;;;0.43;0.43;;;19.90;99.90;22.10;101244.00;;;;5072750;28;20660;-67
2023/07/19 15:50:33;;;;;;;0.43;0.30;;;20.10;99.90;21.50;101241.00;;;;5091091;28;20178;-67
2023/07/19 15:53:41;;;;;;;0.10;0.10;;;20.00;99.90;22.70;101254.00;;;;5071529;28;20213;-67
2023/07/19 15:56:58;;;;;;;0.95;0.60;;;20.20;99.90;22.50;101255.00;;;;5087216;28;20666;-67
2023/07/19 16:00:02;;;;;;;0.50;0.50;;;20.30;99.90;22.40;101253.00;;;;5079250;28;20182;-67
2023/07/19 16:06:11;;;;;;;11.05;1.00;;;20.50;99.90;22.50;101254.00;;;;5070766;28;20219;-67
2023/07/19 16:09:23;;;;;;;1.00;0.65;;;20.50;99.90;22.70;101257.00;;;;5088721;28;20194;-67
2023/07/19 16:12:27;;;;;;;3.00;0.73;;;20.70;99.90;22.80;101265.00;;;;5067093;28;20686;-67
2023/07/19 16:15:38;;;;;;;0.38;0.38;;;20.70;99.90;22.80;101268.00;;;;5087964;28;20185;-67
2023/07/19 16:18:12;;;;;;;0.10;0.10;;;20.80;99.90;22.70;101274.00;;;;5086153;28;20180;-67
2023/07/19 16:21:21;;;;;;;0.30;0.30;;;20.80;99.90;21.80;101270.00;;;;5090415;28;20190;-67
2023/07/19 16:24:25;;;;;;;0.43;0.43;;;20.50;99.90;23.40;101290.00;;;;5072210;28;20193;-67
2023/07/19 16:27:34;;;;;;;2.30;1.55;;;20.80;99.90;23.20;101281.00;;;;5084790;28;20189;-66
2023/07/19 16:30:20;;;;;;;0.20;0.20;;;21.10;99.90;22.70;101261.00;;;;5048799;28;20201;-67
2023/07/19 16:33:13;;;;;;;0.10;0.10;;;20.90;99.90;23.10;101259.00;;;;5088360;28;20300;-67
2023/07/19 16:36:35;;;;;;;0.15;0.15;;;20.90;99.90;23.10;101267.00;;;;5082967;28;20255;-67
2023/07/19 16:39:55;;;;;;;0.10;0.10;;;20.80;99.90;22.70;101268.00;;;;5071463;28;20630;-67
2023/07/19 16:43:19;;;;;;;1.33;0.43;;;20.80;99.90;23.30;101270.00;;;;5069845;28;20185;-67
2023/07/19 16:46:48;;;;;;;0.32;0.32;;;20.90;99.90;23.50;101269.00;;;;5065313;28;20562;-67
2023/07/19 16:53:38;;;;;;;0.00;0.00;;;21.30;99.90;23.10;101268.00;;;;5071625;28;20238;-67
2023/07/19 16:57:09;;;;;;;0.10;0.10;;;21.20;99.90;23.80;101266.00;;;;5072834;28;20182;-67
2023/07/19 17:00:35;;;;;;;0.10;0.10;;;21.10;99.90;25.10;101275.00;;;;5079342;28;20181;-67
2023/07/19 17:04:05;;;;;;;0.35;0.35;;;21.90;99.90;23.40;101264.00;;;;5071174;28;20181;-67
2023/07/19 17:07:11;;;;;;;0.10;0.10;;;21.60;99.90;24.90;101269.00;;;;5074181;28;20177;-67
2023/07/19 17:10:19;;;;;;;0.10;0.10;;;21.80;99.90;25.80;101278.00;;;;5063809;28;20216;-67
2023/07/19 17:13:58;;;;;;;0.10;0.10;;;22.50;99.90;24.60;101270.00;;;;5071840;28;20213;-67
2023/07/19 17:17:18;;;;;;;0.10;0.10;;;22.40;99.90;23.30;101255.00;;;;5076653;28;20266;-67
2023/07/19 17:20:28;;;;;;;0.73;0.52;;;21.80;99.90;23.10;101256.00;;;;5084450;28;20259;-66
2023/07/19 17:24:01;;;;;;;1.70;0.35;;;21.40;99.90;23.10;101261.00;;;;5071555;28;20242;-67
2023/07/19 17:27:10;;;;;;;0.10;0.10;;;21.30;99.90;23.40;101223.00;;;;5079054;28;20579;-67
2023/07/19 17:33:32;;;;;;;0.40;0.40;;;21.30;99.90;24.70;101266.00;;;;5064027;28;20232;-67
2023/07/19 17:36:38;;;;;;;0.20;0.20;;;21.70;99.90;23.40;101254.00;;;;5076450;28;20200;-67
2023/07/19 17:44:09;;;;;;;0.10;0.10;;;21.70;99.90;23.70;101261.00;;;;5032535;28;20635;-66
2023/07/19 17:47:03;;;;;;;0.25;0.25;;;21.70;99.90;24.10;101225.00;;;;5048334;28;20574;-67
2023/07/19 17:49:53;;;;;;;0.28;0.20;;;21.70;99.90;24.10;101256.00;;;;5051387;28;20206;-67
2023/07/19 17:52:42;;;;;;;0.10;0.10;;;21.80;99.90;24.90;101263.00;;;;5033778;28;20217;-67
2023/07/19 17:55:34;;;;;;;0.10;0.10;;;22.20;99.90;25.70;101268.00;;;;5034661;28;20250;-67
2023/07/19 17:58:25;;;;;;;0.30;0.30;;;22.40;99.90;25.00;101272.00;;;;5050720;28;20182;-67
2023/07/19 18:01:18;;;;;;;0.15;0.15;;;22.50;99.90;24.00;101254.00;;;;5026942;28;20199;-67
2023/07/19 18:04:16;;;;;;;0.20;0.20;;;22.00;99.90;24.60;101255.00;;;;4945319;29;20580;-67
2023/07/19 18:07:47;;;;;;;0.10;0.10;;;21.90;99.90;24.90;101269.00;;;;4949878;28;20205;-67
2023/07/19 18:11:02;;;;;;;0.30;0.30;;;22.00;99.90;24.20;101260.00;;;;4997861;28;20219;-67
2023/07/19 18:13:58;;;;;;;0.22;0.22;;;21.90;99.90;25.10;101267.00;;;;4950892;29;20229;-67
2023/07/19 18:17:07;;;;;;;0.10;0.10;;;22.10;99.90;25.00;101291.00;;;;4952909;29;20569;-67
2023/07/19 18:20:13;;;;;;;0.40;0.40;;;22.40;99.90;24.40;101239.00;;;;4993445;28;20230;-67
2023/07/19 18:23:37;;;;;;;0.40;0.40;;;21.80;99.90;24.00;101260.00;;;;5011187;28;20195;-67
2023/07/19 18:26:46;;;;;;;0.10;0.10;;;21.80;99.90;24.50;101274.00;;;;4993986;28;20243;-66
2023/07/19 18:29:28;;;;;;;0.10;0.10;;;21.80;99.90;25.00;101275.00;;;;5007931;28;20666;-68
2023/07/19 18:32:34;;;;;;;0.10;0.10;;;22.10;99.90;25.70;101287.00;;;;5071193;28;20228;-68
2023/07/19 18:35:47;;;;;;;0.52;0.50;;;22.40;99.90;24.30;101282.00;;;;5065044;28;20193;-68
2023/07/19 18:38:21;;;;;;;0.10;0.10;;;22.10;99.90;24.00;101252.00;;;;5064394;28;20268;-67
2023/07/19 18:41:13;;;;;;;0.10;0.10;;;21.80;99.90;25.40;101274.00;;;;5068731;28;20189;-67
2023/07/19 18:44:01;;;;;;;0.10;0.10;;;22.10;99.90;25.90;101278.00;;;;5088800;28;20189;-68
2023/07/19 18:47:05;;;;;;;0.13;0.13;;;22.50;99.90;26.20;101309.00;;;;5086358;28;20217;-68
2023/07/19 18:50:14;;;;;;;0.10;0.10;;;22.80;99.90;26.10;101326.00;;;;5069131;28;20193;-68
2023/07/19 18:53:25;;;;;;;0.55;0.55;;;22.80;99.90;26.00;101335.00;;;;5077923;28;20193;-68
2023/07/19 18:56:23;;;;;;;0.10;0.10;;;22.90;99.90;26.20;101333.00;;;;5075738;28;20197;-67
2023/07/19 18:59:06;;;;;;;0.10;0.10;;;22.80;99.90;26.50;101334.00;;;;5092075;28;20189;-68
2023/07/19 19:01:56;;;;;;;0.10;0.10;;;22.90;99.90;26.20;101346.00;;;;5064404;28;20184;-68
2023/07/19 19:04:48;;;;;;;0.20;0.20;;;23.00;99.90;26.20;101338.00;;;;5091499;28;20323;-69
2023/07/19 19:07:37;;;;;;;0.30;0.30;;;22.90;99.90;25.80;101330.00;;;;5052730;28;20205;-68
2023/07/19 19:10:50;;;;;;;0.10;0.10;;;22.80;99.90;26.30;101341.00;;;;5070357;28;20186;-67
2023/07/19 19:13:45;;;;;;;0.10;0.10;;;22.90;99.90;26.00;101336.00;;;;5068343;28;20209;-67
2023/07/19 19:16:35;;;;;;;0.10;0.10;;;22.90;99.90;25.80;101333.00;;;;5063622;28;20193;-67
2023/07/19 19:19:17;;;;;;;0.10;0.10;;;22.60;99.90;25.70;101335.00;;;;5086085;28;20182;-67
2023/07/19 19:22:03;;;;;;;0.10;0.10;;;22.60;99.90;25.50;101327.00;;;;5076243;28;20212;-67
2023/07/19 19:24:57;;;;;;;0.10;0.10;;;22.50;99.90;25.80;101315.00;;;;5090370;28;20192;-67